Time;durP1;ratioP1;P1;durP2;ratioP2;P2;SDS_P1;SDS_P2;PMS_P1;PMS_P2;Temp;Humidity;BMP_temperature;BMP_pressure;BME280_temperature;BME280_humidity;BME280_pressure;Samples;Min_cycle;Max_cycle;Signal;HPM_P1;HPM_P2
2022/06/21 00:00:20;;;;;;;14.73;2.40;;;11.90;73.30;;;;;;4092694;28;20031;-85
2022/06/21 00:02:41;;;;;;;14.98;2.38;;;11.90;73.40;;;;;;4106507;28;20035;-86
2022/06/21 00:05:03;;;;;;;21.35;3.05;;;11.90;73.50;;;;;;4090130;28;21271;-85
2022/06/21 00:07:26;;;;;;;18.95;2.38;;;11.90;73.70;;;;;;4117660;28;20022;-84
2022/06/21 00:09:47;;;;;;;13.55;2.40;;;11.90;73.80;;;;;;4085060;28;21749;-85
2022/06/21 00:12:12;;;;;;;18.13;3.10;;;11.80;73.90;;;;;;4096504;28;20042;-85
2022/06/21 00:14:33;;;;;;;15.00;2.15;;;11.80;74.00;;;;;;4094386;28;20097;-87
2022/06/21 00:16:54;;;;;;;15.45;2.40;;;11.80;74.10;;;;;;4098793;28;20066;-87
2022/06/21 00:19:24;;;;;;;18.50;2.58;;;11.80;74.40;;;;;;4097191;28;20400;-86
2022/06/21 00:21:46;;;;;;;17.13;2.90;;;11.80;74.50;;;;;;4100786;28;20046;-86
2022/06/21 00:24:07;;;;;;;17.25;2.60;;;11.80;74.60;;;;;;4095489;28;20087;-86
2022/06/21 00:26:29;;;;;;;23.17;3.30;;;11.80;74.60;;;;;;4097388;28;20875;-84
2022/06/21 00:28:50;;;;;;;21.55;2.25;;;11.80;74.80;;;;;;4101110;28;20077;-85
2022/06/21 00:31:24;;;;;;;17.90;2.35;;;11.80;74.90;;;;;;4083063;28;20032;-86
2022/06/21 00:33:46;;;;;;;24.15;2.08;;;11.70;75.40;;;;;;4094249;28;20042;-86
2022/06/21 00:36:17;;;;;;;17.75;3.05;;;11.80;75.10;;;;;;4093068;28;20121;-84
2022/06/21 00:38:38;;;;;;;20.90;2.42;;;11.80;75.50;;;;;;4097876;28;20195;-88
2022/06/21 00:41:03;;;;;;;19.38;2.75;;;11.80;75.70;;;;;;4098703;28;20134;-86
2022/06/21 00:43:28;;;;;;;17.77;2.65;;;11.80;75.80;;;;;;4092945;28;20058;-86
2022/06/21 00:45:51;;;;;;;20.00;2.90;;;11.80;75.90;;;;;;4097179;28;20035;-86
2022/06/21 00:48:15;;;;;;;17.73;2.38;;;11.80;76.10;;;;;;4083132;28;20046;-86
2022/06/21 00:50:41;;;;;;;18.95;2.30;;;11.80;75.90;;;;;;4090941;28;20129;-85
2022/06/21 00:53:20;;;;;;;15.77;2.58;;;11.80;76.00;;;;;;4098854;28;20030;-84
2022/06/21 00:56:01;;;;;;;18.13;2.20;;;11.70;76.20;;;;;;4094237;28;20189;-86
2022/06/21 00:58:26;;;;;;;16.35;2.80;;;11.80;76.00;;;;;;4084517;28;20062;-85
2022/06/21 01:00:54;;;;;;;21.17;2.90;;;11.80;75.90;;;;;;4091154;28;20114;-85
2022/06/21 01:03:21;;;;;;;22.40;2.60;;;11.80;75.90;;;;;;4093901;28;20027;-86
2022/06/21 01:06:22;;;;;;;17.23;2.70;;;11.80;76.00;;;;;;4096318;28;20050;-86
2022/06/21 01:09:06;;;;;;;22.83;2.67;;;11.80;76.00;;;;;;4080738;28;20609;-86
2022/06/21 01:11:44;;;;;;;20.90;2.50;;;11.70;75.90;;;;;;4084300;28;20393;-85
2022/06/21 01:14:08;;;;;;;25.45;2.53;;;11.70;76.00;;;;;;4101257;28;20649;-86
2022/06/21 01:16:32;;;;;;;18.30;2.60;;;11.70;75.90;;;;;;4097402;28;20042;-86
2022/06/21 01:18:53;;;;;;;15.60;2.80;;;11.70;76.00;;;;;;4099236;28;20313;-85
2022/06/21 01:21:17;;;;;;;20.58;3.28;;;11.70;76.00;;;;;;4080590;28;20179;-84
2022/06/21 01:23:59;;;;;;;17.45;2.60;;;11.70;76.40;;;;;;4099789;28;20877;-86
2022/06/21 01:26:42;;;;;;;14.05;2.72;;;11.70;76.50;;;;;;4098147;28;20474;-85
2022/06/21 01:29:08;;;;;;;19.45;2.58;;;11.70;76.60;;;;;;4105438;28;20039;-86
2022/06/21 01:31:30;;;;;;;14.40;2.38;;;11.70;76.70;;;;;;4097020;28;20110;-84
2022/06/21 01:33:51;;;;;;;24.45;2.78;;;11.60;76.80;;;;;;4101595;28;20049;-86
2022/06/21 01:36:24;;;;;;;19.10;2.47;;;11.70;76.90;;;;;;4098810;28;20038;-84
2022/06/21 01:38:59;;;;;;;18.88;3.22;;;11.70;78.00;;;;;;4102550;28;20108;-85
2022/06/21 01:41:28;;;;;;;22.15;2.70;;;11.70;77.40;;;;;;4099985;28;20095;-86
2022/06/21 01:43:54;;;;;;;13.77;2.45;;;11.60;77.50;;;;;;4103448;28;20035;-85
2022/06/21 01:46:19;;;;;;;18.88;2.53;;;11.70;77.50;;;;;;4100316;28;20042;-86
2022/06/21 01:48:49;;;;;;;14.85;2.53;;;11.60;77.50;;;;;;4102166;28;20086;-86
2022/06/21 01:51:15;;;;;;;25.30;2.47;;;11.60;77.50;;;;;;4102360;28;20392;-87
2022/06/21 01:53:37;;;;;;;19.52;2.40;;;11.70;77.60;;;;;;4099296;28;20138;-85
2022/06/21 01:56:06;;;;;;;10.88;2.35;;;11.70;77.70;;;;;;4103421;28;20038;-85
2022/06/21 01:58:32;;;;;;;15.95;2.30;;;11.60;77.70;;;;;;4103695;28;20045;-87
2022/06/21 02:01:00;;;;;;;20.65;2.40;;;11.60;77.60;;;;;;4101319;28;20057;-86
2022/06/21 02:03:25;;;;;;;21.55;2.45;;;11.60;77.90;;;;;;4102985;28;20169;-87
2022/06/21 02:05:51;;;;;;;14.13;2.25;;;11.60;78.00;;;;;;4097527;28;20034;-85
2022/06/21 02:08:15;;;;;;;21.13;2.90;;;11.60;78.10;;;;;;4086062;28;20751;-87
2022/06/21 02:10:42;;;;;;;18.45;3.15;;;11.60;78.10;;;;;;4100087;28;20126;-86
2022/06/21 02:13:40;;;;;;;15.43;2.78;;;11.60;78.10;;;;;;4090228;28;20427;-86
2022/06/21 02:16:07;;;;;;;18.23;2.17;;;11.60;78.20;;;;;;4073465;28;20042;-84
2022/06/21 02:18:32;;;;;;;18.13;2.10;;;11.70;78.30;;;;;;4079516;28;20061;-83
2022/06/21 02:20:56;;;;;;;18.48;2.90;;;11.70;78.30;;;;;;4095222;28;20225;-83
2022/06/21 02:23:18;;;;;;;;;;;11.70;78.30;;;;;;4099188;28;20039;-85
2022/06/21 02:25:40;;;;;;;16.27;2.10;;;11.70;78.50;;;;;;4083091;28;20537;-85
2022/06/21 02:28:04;;;;;;;13.95;2.40;;;11.70;78.10;;;;;;4082040;28;20110;-84
2022/06/21 02:30:26;;;;;;;;;;;11.70;78.00;;;;;;4085328;28;20031;-85
2022/06/21 02:32:49;;;;;;;13.65;2.15;;;11.70;78.20;;;;;;4070600;28;20510;-83
2022/06/21 02:35:38;;;;;;;18.60;1.95;;;11.70;77.80;;;;;;4084698;28;20070;-85
2022/06/21 02:38:04;;;;;;;13.73;2.83;;;11.70;77.90;;;;;;4079514;28;20039;-84
2022/06/21 02:40:35;;;;;;;19.80;1.88;;;11.70;77.80;;;;;;4083717;28;20429;-85
2022/06/21 02:43:01;;;;;;;14.60;2.03;;;11.60;77.90;;;;;;4065866;28;20130;-84
2022/06/21 02:45:53;;;;;;;18.35;2.70;;;11.60;77.80;;;;;;4086808;28;20142;-83
2022/06/21 02:48:19;;;;;;;14.02;2.03;;;11.60;77.90;;;;;;4064887;28;20374;-84
2022/06/21 02:50:50;;;;;;;9.80;1.95;;;11.60;77.90;;;;;;4087008;28;20083;-84
2022/06/21 02:53:35;;;;;;;18.02;2.05;;;11.60;77.90;;;;;;4066598;29;20140;-85
2022/06/21 02:56:09;;;;;;;18.15;2.20;;;11.60;78.10;;;;;;4084099;28;20824;-83
2022/06/21 02:58:41;;;;;;;16.20;2.37;;;11.60;78.10;;;;;;4077136;28;20031;-83
2022/06/21 03:01:11;;;;;;;16.73;2.50;;;11.60;78.20;;;;;;4083071;28;20319;-84
2022/06/21 03:03:33;;;;;;;17.80;2.13;;;11.50;78.10;;;;;;4080432;28;20054;-85
2022/06/21 03:05:59;;;;;;;13.57;2.40;;;11.60;78.10;;;;;;4088956;28;20043;-85
2022/06/21 03:08:20;;;;;;;16.42;2.03;;;11.60;78.20;;;;;;4085687;28;20031;-84
2022/06/21 03:10:46;;;;;;;19.80;2.50;;;11.60;78.20;;;;;;4081369;28;20817;-85
2022/06/21 03:13:29;;;;;;;20.20;2.40;;;11.60;78.20;;;;;;4085680;28;20035;-85
2022/06/21 03:16:01;;;;;;;14.15;2.13;;;11.60;78.30;;;;;;4083804;28;20035;-84
2022/06/21 03:18:31;;;;;;;9.98;2.22;;;11.60;78.30;;;;;;4073126;28;20126;-84
2022/06/21 03:20:53;;;;;;;16.38;2.20;;;11.60;78.20;;;;;;4068111;28;20035;-85
2022/06/21 03:23:15;;;;;;;18.13;2.55;;;11.60;78.20;;;;;;4080901;28;20031;-85
2022/06/21 03:25:46;;;;;;;16.83;2.50;;;11.60;78.10;;;;;;4083744;28;20405;-86
2022/06/21 03:28:29;;;;;;;17.42;2.50;;;11.60;78.20;;;;;;4079740;28;20436;-84
2022/06/21 03:30:59;;;;;;;15.32;2.50;;;11.70;78.30;;;;;;4057235;28;20047;-86
2022/06/21 03:33:19;;;;;;;14.35;2.17;;;11.70;78.20;;;;;;4083502;28;20042;-85
2022/06/21 03:35:41;;;;;;;14.82;2.03;;;11.70;78.20;;;;;;4078752;28;20075;-85
2022/06/21 03:38:03;;;;;;;16.75;2.58;;;11.70;78.20;;;;;;4084444;28;20043;-85
2022/06/21 03:43:29;;;;;;;16.52;2.10;;;11.70;78.30;;;;;;4078994;28;20853;-86
2022/06/21 03:45:54;;;;;;;13.57;2.40;;;11.70;78.50;;;;;;4083002;28;20049;-84
2022/06/21 03:48:21;;;;;;;9.02;1.73;;;11.80;78.40;;;;;;4083083;28;20351;-86
2022/06/21 03:50:53;;;;;;;9.07;2.22;;;11.80;78.50;;;;;;4085755;29;20121;-83
2022/06/21 03:53:22;;;;;;;8.98;2.28;;;11.80;78.50;;;;;;4086208;28;20031;-85
2022/06/21 03:56:01;;;;;;;18.38;2.97;;;11.90;78.70;;;;;;4085184;28;20133;-87
2022/06/21 03:58:28;;;;;;;17.00;2.67;;;11.90;78.80;;;;;;4082230;28;20031;-87
2022/06/21 04:01:05;;;;;;;19.45;2.50;;;11.90;78.60;;;;;;4085316;28;20463;-86
2022/06/21 04:03:36;;;;;;;9.88;2.13;;;12.00;78.60;;;;;;4086129;28;20457;-87
2022/06/21 04:06:54;;;;;;;13.25;2.15;;;12.00;78.40;;;;;;4085246;28;20062;-85
2022/06/21 04:09:44;;;;;;;12.10;2.72;;;12.10;78.60;;;;;;4038233;29;20032;-84
2022/06/21 04:12:36;;;;;;;15.30;2.70;;;12.10;78.30;;;;;;4068306;28;20083;-87
2022/06/21 04:15:09;;;;;;;12.57;2.28;;;12.20;77.60;;;;;;4085273;28;20123;-85
2022/06/21 04:17:42;;;;;;;10.30;2.60;;;12.20;78.20;;;;;;4075667;28;21648;-87
2022/06/21 04:20:12;;;;;;;10.52;2.45;;;12.20;78.20;;;;;;4069679;29;20036;-84
2022/06/21 04:22:44;;;;;;;13.02;2.88;;;12.30;78.10;;;;;;4090566;28;20047;-87
2022/06/21 04:25:08;;;;;;;10.77;2.72;;;12.30;78.20;;;;;;4084402;28;20039;-87
2022/06/21 04:27:34;;;;;;;;;;;12.30;78.00;;;;;;4087233;28;20518;-84
2022/06/21 04:30:01;;;;;;;10.60;2.22;;;12.40;77.90;;;;;;4081656;28;19917;-86
2022/06/21 04:32:43;;;;;;;13.43;2.50;;;12.50;77.50;;;;;;4103412;28;20039;-83
2022/06/21 04:35:34;;;;;;;6.00;2.28;;;12.50;77.30;;;;;;4095905;28;20047;-85
2022/06/21 04:38:16;;;;;;;11.68;2.92;;;12.50;77.10;;;;;;4086960;28;20055;-84
2022/06/21 04:40:43;;;;;;;11.27;2.72;;;12.60;76.90;;;;;;4080667;28;20035;-84
2022/06/21 04:43:23;;;;;;;12.50;2.70;;;12.50;76.50;;;;;;4083065;28;20071;-86
2022/06/21 04:45:50;;;;;;;11.77;3.22;;;12.60;76.70;;;;;;4090433;28;20709;-84
2022/06/21 04:48:48;;;;;;;19.33;2.83;;;12.60;76.50;;;;;;4082339;28;20209;-86
2022/06/21 04:51:24;;;;;;;11.75;2.70;;;12.60;76.30;;;;;;4081306;28;20099;-83
2022/06/21 04:53:59;;;;;;;15.75;2.85;;;12.70;76.20;;;;;;4082009;28;20031;-86
2022/06/21 04:56:51;;;;;;;12.25;2.60;;;12.70;76.10;;;;;;4086032;28;20035;-86
2022/06/21 04:59:21;;;;;;;15.00;2.42;;;12.70;75.70;;;;;;4088321;28;20066;-87
2022/06/21 05:01:42;;;;;;;10.80;2.70;;;12.70;75.30;;;;;;4087440;29;20107;-86
2022/06/21 05:04:06;;;;;;;9.68;2.25;;;12.70;75.10;;;;;;4087563;28;20111;-88
2022/06/21 05:06:27;;;;;;;8.40;2.53;;;12.70;75.20;;;;;;4086326;28;20789;-89
2022/06/21 05:08:49;;;;;;;13.35;2.58;;;12.70;75.20;;;;;;4075578;28;20055;-87
2022/06/21 05:11:12;;;;;;;11.68;2.35;;;12.70;75.30;;;;;;4086166;28;20496;-87
2022/06/21 05:13:42;;;;;;;12.90;3.22;;;12.70;75.40;;;;;;4086187;28;20065;-88
2022/06/21 05:16:10;;;;;;;14.60;2.90;;;12.80;75.40;;;;;;4076506;28;20044;-87
2022/06/21 05:18:42;;;;;;;12.20;2.33;;;12.80;75.50;;;;;;4073893;28;20064;-88
2022/06/21 05:21:10;;;;;;;8.48;2.17;;;12.80;75.10;;;;;;4086640;28;20459;-89
2022/06/21 05:23:32;;;;;;;15.18;2.30;;;12.80;74.70;;;;;;4083013;28;20041;-86
2022/06/21 05:25:55;;;;;;;14.52;2.80;;;12.80;74.60;;;;;;4076331;29;20110;-87
2022/06/21 05:28:25;;;;;;;8.00;2.17;;;12.90;74.60;;;;;;4089478;28;20411;-86
2022/06/21 05:31:08;;;;;;;9.80;2.33;;;12.90;74.40;;;;;;4087150;28;20027;-87
2022/06/21 05:33:39;;;;;;;8.07;2.47;;;12.90;74.40;;;;;;4080945;28;20087;-87
2022/06/21 05:36:07;;;;;;;7.43;2.03;;;12.90;74.40;;;;;;4090440;28;20031;-87
2022/06/21 05:38:31;;;;;;;11.98;2.47;;;12.90;74.80;;;;;;4086323;28;20405;-85
2022/06/21 05:40:58;;;;;;;13.75;2.42;;;12.90;73.80;;;;;;4088595;28;20106;-87
2022/06/21 05:43:27;;;;;;;13.90;2.60;;;13.00;73.70;;;;;;4090210;28;20434;-87
2022/06/21 05:46:01;;;;;;;12.43;2.25;;;13.00;73.80;;;;;;4088279;28;20656;-87
2022/06/21 05:48:24;;;;;;;12.65;2.80;;;13.00;73.70;;;;;;4087517;28;20042;-87
2022/06/21 05:50:46;;;;;;;15.55;2.80;;;13.00;73.70;;;;;;4094797;28;20031;-88
2022/06/21 05:53:21;;;;;;;14.75;2.35;;;13.10;73.70;;;;;;4095484;28;20036;-87
2022/06/21 05:55:45;;;;;;;14.98;2.50;;;13.10;73.60;;;;;;4091004;28;20462;-87
2022/06/21 05:58:16;;;;;;;12.50;2.40;;;13.10;73.50;;;;;;4093878;28;20030;-87
2022/06/21 06:01:12;;;;;;;8.82;1.95;;;13.20;73.40;;;;;;4089940;28;20047;-88
2022/06/21 06:03:43;;;;;;;11.98;2.83;;;13.20;73.00;;;;;;4094451;28;20031;-90
2022/06/21 06:06:05;;;;;;;9.40;2.05;;;13.30;73.10;;;;;;4088191;28;20058;-88
2022/06/21 06:08:31;;;;;;;8.65;2.45;;;13.40;73.30;;;;;;4086866;28;20046;-91
2022/06/21 06:10:54;;;;;;;10.55;2.30;;;13.40;72.80;;;;;;4086309;28;20062;-89
2022/06/21 06:13:22;;;;;;;7.38;2.00;;;13.40;72.70;;;;;;4088324;28;21096;-88
2022/06/21 06:15:55;;;;;;;9.63;2.05;;;13.60;72.60;;;;;;4075066;29;20493;-86
2022/06/21 06:18:22;;;;;;;12.35;2.10;;;13.50;72.20;;;;;;4084646;28;20036;-88
2022/06/21 06:20:57;;;;;;;10.88;2.28;;;13.60;71.90;;;;;;4079578;28;20031;-87
2022/06/21 06:23:24;;;;;;;10.10;2.10;;;13.60;72.00;;;;;;4087263;28;20117;-89
2022/06/21 06:25:54;;;;;;;11.45;2.20;;;13.70;72.00;;;;;;4076494;29;20036;-86
2022/06/21 06:28:46;;;;;;;6.28;1.88;;;13.70;71.60;;;;;;4090388;28;20037;-89
2022/06/21 06:31:10;;;;;;;12.10;1.90;;;13.80;71.30;;;;;;4083373;28;20034;-87
2022/06/21 06:33:39;;;;;;;;;;;13.80;71.20;;;;;;4083647;28;20027;-90
2022/06/21 06:36:05;;;;;;;10.90;2.20;;;13.90;71.10;;;;;;4071848;29;20397;-90
2022/06/21 06:38:28;;;;;;;22.00;5.28;;;13.90;70.40;;;;;;4088439;28;20031;-88
2022/06/21 06:40:56;;;;;;;15.30;3.72;;;14.00;70.70;;;;;;4084416;28;20487;-88
2022/06/21 06:43:36;;;;;;;6.75;2.03;;;14.00;70.80;;;;;;4099175;28;20035;-88
2022/06/21 06:45:58;;;;;;;6.15;1.60;;;14.10;70.80;;;;;;4096479;28;20067;-89
2022/06/21 06:48:25;;;;;;;9.48;1.88;;;14.10;70.60;;;;;;4075525;29;20028;-87
2022/06/21 06:50:52;;;;;;;14.00;2.60;;;14.20;70.50;;;;;;4086634;28;20130;-88
2022/06/21 06:53:34;;;;;;;14.45;2.13;;;14.20;69.90;;;;;;4073551;29;20031;-89
2022/06/21 06:56:03;;;;;;;11.73;1.95;;;14.30;69.60;;;;;;4091155;28;20095;-89
2022/06/21 06:58:57;;;;;;;8.25;1.80;;;14.40;69.50;;;;;;4073841;28;20059;-89
2022/06/21 07:01:23;;;;;;;4.18;2.00;;;14.40;68.60;;;;;;4074835;28;20641;-88
2022/06/21 07:04:00;;;;;;;7.00;2.30;;;14.50;69.10;;;;;;4087388;28;20035;-89
2022/06/21 07:06:30;;;;;;;8.30;1.70;;;14.50;68.80;;;;;;4088103;28;20043;-89
2022/06/21 07:08:59;;;;;;;8.10;1.75;;;14.60;68.40;;;;;;4086790;28;20069;-88
2022/06/21 07:11:39;;;;;;;12.38;2.10;;;14.70;68.30;;;;;;4087057;28;20035;-88
2022/06/21 07:14:01;;;;;;;9.93;2.15;;;14.70;67.90;;;;;;4073488;29;20123;-88
2022/06/21 07:16:24;;;;;;;11.40;2.08;;;14.80;68.10;;;;;;4086403;28;20110;-87
2022/06/21 07:18:48;;;;;;;15.02;2.22;;;14.90;67.80;;;;;;4086182;28;20046;-88
2022/06/21 07:21:09;;;;;;;7.22;1.88;;;15.00;67.60;;;;;;4090006;28;20030;-89
2022/06/21 07:23:31;;;;;;;9.43;2.22;;;15.00;67.70;;;;;;4084841;28;20051;-87
2022/06/21 07:25:57;;;;;;;10.98;2.15;;;15.10;67.10;;;;;;4077814;29;20534;-90
2022/06/21 07:28:34;;;;;;;6.43;1.63;;;15.20;66.90;;;;;;4087503;29;20034;-89
2022/06/21 07:31:00;;;;;;;9.18;2.22;;;15.20;66.30;;;;;;4086546;28;20050;-87
2022/06/21 07:33:34;;;;;;;6.35;2.20;;;15.30;66.30;;;;;;4089286;28;20039;-89
2022/06/21 07:35:57;;;;;;;;;;;15.40;66.30;;;;;;4075567;29;20524;-90
2022/06/21 07:38:32;;;;;;;5.80;2.28;;;15.50;66.30;;;;;;4087934;28;19914;-88
2022/06/21 07:41:00;;;;;;;7.10;1.80;;;15.50;65.80;;;;;;4091620;28;20050;-89
2022/06/21 07:43:42;;;;;;;10.20;2.50;;;15.60;65.70;;;;;;4088421;28;20039;-88
2022/06/21 07:46:07;;;;;;;8.85;2.00;;;15.70;65.30;;;;;;4086193;28;20109;-90
2022/06/21 07:48:27;;;;;;;11.70;2.10;;;15.70;64.70;;;;;;4085978;28;20031;-90
2022/06/21 07:50:59;;;;;;;7.50;2.00;;;15.80;64.60;;;;;;4074396;28;20075;-89
2022/06/21 07:53:39;;;;;;;7.40;2.60;;;15.90;64.20;;;;;;4086165;29;20039;-86
2022/06/21 07:56:10;;;;;;;10.35;2.40;;;16.00;64.20;;;;;;4087353;28;20484;-86
2022/06/21 07:58:46;;;;;;;7.35;2.20;;;16.00;64.10;;;;;;4082726;28;20028;-90
2022/06/21 08:07:03;;;;;;;9.20;2.10;;;16.20;63.50;;;;;;4084777;28;20429;-89
2022/06/21 08:09:27;;;;;;;8.82;2.20;;;16.30;62.90;;;;;;4088129;28;20036;-88
2022/06/21 08:11:51;;;;;;;5.80;2.05;;;16.40;62.40;;;;;;4088448;28;20050;-90
2022/06/21 08:14:13;;;;;;;;;;;16.40;62.40;;;;;;4088515;28;20163;-90
2022/06/21 08:16:56;;;;;;;4.03;2.20;;;16.50;62.10;;;;;;4087295;28;20250;-87
2022/06/21 08:19:39;;;;;;;8.02;2.13;;;16.50;61.60;;;;;;4074239;28;20032;-90
2022/06/21 08:22:03;;;;;;;12.20;2.20;;;16.60;61.50;;;;;;4083237;28;20349;-88
2022/06/21 08:24:59;;;;;;;7.43;1.80;;;16.70;61.20;;;;;;4071028;29;20228;-92
2022/06/21 08:27:42;;;;;;;7.03;1.42;;;16.70;60.80;;;;;;4085123;28;20031;-89
2022/06/21 08:30:39;;;;;;;8.75;1.90;;;16.70;60.90;;;;;;4085372;28;20166;-88
2022/06/21 08:33:14;;;;;;;4.63;1.90;;;16.80;60.10;;;;;;4041854;29;20037;-86
2022/06/21 08:35:41;;;;;;;8.80;1.55;;;16.80;60.20;;;;;;4085530;28;20039;-88
2022/06/21 08:38:16;;;;;;;6.72;1.85;;;16.80;59.70;;;;;;4086425;28;20043;-89
2022/06/21 08:41:05;;;;;;;7.60;2.30;;;16.80;59.20;;;;;;4084173;28;20497;-88
2022/06/21 08:43:38;;;;;;;8.07;2.17;;;16.90;59.80;;;;;;4087418;28;20038;-89
2022/06/21 08:46:02;;;;;;;7.97;1.90;;;17.00;59.70;;;;;;4087497;29;20408;-89
2022/06/21 08:48:23;;;;;;;;;;;17.00;59.30;;;;;;4085107;28;20046;-90
2022/06/21 08:51:09;;;;;;;6.50;1.92;;;17.00;58.50;;;;;;4088501;28;19918;-85
2022/06/21 08:53:49;;;;;;;6.75;2.05;;;17.10;58.60;;;;;;4103034;28;20015;-87
2022/06/21 08:56:30;;;;;;;7.88;2.10;;;17.10;58.70;;;;;;4090330;28;20441;-89
2022/06/21 08:59:05;;;;;;;7.50;1.88;;;17.10;58.60;;;;;;4086694;28;20028;-87
2022/06/21 09:01:50;;;;;;;11.68;2.33;;;17.20;59.00;;;;;;4088836;28;20101;-90
2022/06/21 09:04:40;;;;;;;8.27;2.00;;;17.30;59.30;;;;;;4084600;28;20087;-89
2022/06/21 09:07:31;;;;;;;10.95;1.90;;;17.30;59.10;;;;;;4085644;28;20067;-89
2022/06/21 09:09:52;;;;;;;6.13;2.10;;;17.40;59.10;;;;;;4086891;28;20047;-87
2022/06/21 09:12:43;;;;;;;4.80;1.58;;;17.50;59.80;;;;;;4074098;28;20487;-87
2022/06/21 09:15:27;;;;;;;8.23;1.92;;;17.50;58.60;;;;;;4084160;28;20411;-88
2022/06/21 09:17:48;;;;;;;13.93;1.77;;;17.60;58.90;;;;;;4088019;28;20081;-88
2022/06/21 09:20:38;;;;;;;5.38;2.08;;;17.60;58.60;;;;;;4085748;28;20065;-90
2022/06/21 09:23:13;;;;;;;4.82;1.85;;;17.70;58.30;;;;;;4082116;28;20101;-90
2022/06/21 09:26:09;;;;;;;6.32;2.00;;;17.80;57.90;;;;;;4089731;28;20460;-87
2022/06/21 09:28:43;;;;;;;7.60;2.10;;;17.80;57.00;;;;;;4080590;28;20047;-90
2022/06/21 09:31:17;;;;;;;9.00;1.90;;;17.80;57.70;;;;;;4088248;28;20605;-89
2022/06/21 09:33:50;;;;;;;6.10;1.98;;;17.90;58.20;;;;;;4094674;28;20039;-85
2022/06/21 09:36:29;;;;;;;4.13;1.63;;;17.90;58.60;;;;;;4092001;28;20028;-90
2022/06/21 09:39:32;;;;;;;7.82;1.80;;;18.00;57.80;;;;;;4095347;28;20122;-89
2022/06/21 09:41:58;;;;;;;6.43;1.58;;;18.10;57.70;;;;;;4084196;28;20035;-87
2022/06/21 09:45:13;;;;;;;3.03;1.05;;;18.10;57.20;;;;;;4090242;28;20773;-87
2022/06/21 09:47:40;;;;;;;4.40;1.67;;;18.20;56.50;;;;;;4008028;29;20534;-87
2022/06/21 09:50:09;;;;;;;9.65;1.92;;;18.20;56.60;;;;;;4084131;28;20628;-88
2022/06/21 09:52:44;;;;;;;8.27;2.00;;;18.20;56.40;;;;;;4092488;28;20055;-85
2022/06/21 09:55:31;;;;;;;6.60;1.75;;;18.30;56.60;;;;;;4093688;28;20491;-87
2022/06/21 09:57:58;;;;;;;5.82;1.80;;;18.30;57.10;;;;;;4093746;28;20031;-90
2022/06/21 10:00:40;;;;;;;7.28;2.00;;;18.40;57.30;;;;;;4088453;28;20035;-87
2022/06/21 10:03:11;;;;;;;9.45;2.13;;;18.50;58.10;;;;;;4093324;28;20550;-87
2022/06/21 10:05:50;;;;;;;5.68;1.92;;;18.50;56.90;;;;;;4093471;28;20047;-88
2022/06/21 10:08:29;;;;;;;5.45;1.70;;;18.60;57.10;;;;;;4075630;28;20043;-88
2022/06/21 10:11:10;;;;;;;8.98;1.60;;;18.70;56.70;;;;;;4090554;28;20043;-89
2022/06/21 10:13:39;;;;;;;3.78;1.60;;;18.80;56.10;;;;;;4087124;28;20606;-88
2022/06/21 10:16:14;;;;;;;6.38;1.77;;;18.80;56.00;;;;;;4089446;28;20179;-88
2022/06/21 10:18:58;;;;;;;10.07;1.98;;;18.90;56.20;;;;;;4086177;28;20035;-91
2022/06/21 10:21:38;;;;;;;7.57;1.67;;;19.00;55.60;;;;;;4073586;28;20544;-86
2022/06/21 10:24:40;;;;;;;6.20;1.98;;;19.00;55.70;;;;;;4090403;28;20031;-86
2022/06/21 10:27:04;;;;;;;11.02;1.98;;;19.10;54.90;;;;;;4092820;28;20119;-88
2022/06/21 10:29:59;;;;;;;4.95;2.25;;;19.10;54.40;;;;;;4074886;28;20774;-90
2022/06/21 10:32:44;;;;;;;8.82;2.00;;;19.10;54.00;;;;;;4076031;28;20068;-89
2022/06/21 10:35:44;;;;;;;4.15;1.55;;;19.10;53.90;;;;;;4092076;28;20034;-88
2022/06/21 10:38:53;;;;;;;4.63;1.70;;;19.20;53.30;;;;;;4065426;28;20100;-88
2022/06/21 10:42:46;;;;;;;7.32;1.75;;;19.20;53.40;;;;;;4088241;28;20078;-91
2022/06/21 10:44:53;;;;;;;6.50;1.52;;;19.20;54.00;;;;;;4087612;28;20035;-87
2022/06/21 10:47:36;;;;;;;8.57;1.58;;;19.30;53.60;;;;;;4092107;28;20058;-87
2022/06/21 10:50:19;;;;;;;5.75;1.92;;;19.30;53.40;;;;;;4091188;28;20051;-87
2022/06/21 10:52:58;;;;;;;4.13;1.75;;;19.30;53.20;;;;;;4089364;28;20382;-86
2022/06/21 10:55:31;;;;;;;6.72;1.92;;;19.40;53.70;;;;;;4090823;28;20070;-87
2022/06/21 10:58:07;;;;;;;7.05;1.92;;;19.40;54.30;;;;;;4095153;28;20087;-85
2022/06/21 11:04:04;;;;;;;8.68;1.63;;;19.50;53.80;;;;;;4089447;28;20067;-89
2022/06/21 11:06:52;;;;;;;5.18;1.60;;;19.50;52.50;;;;;;4091345;28;20114;-87
2022/06/21 11:09:25;;;;;;;7.00;1.90;;;19.50;51.70;;;;;;4086425;28;20551;-88
2022/06/21 11:15:27;;;;;;;6.30;1.85;;;19.50;52.40;;;;;;4084604;28;20107;-88
2022/06/21 11:18:02;;;;;;;5.25;1.73;;;19.60;53.10;;;;;;4070395;28;20035;-89
2022/06/21 11:20:36;;;;;;;6.85;1.55;;;19.60;52.80;;;;;;4084648;28;20072;-88
2022/06/21 11:23:20;;;;;;;6.55;1.55;;;19.60;53.00;;;;;;4087259;28;20031;-87
2022/06/21 11:25:51;;;;;;;5.20;1.40;;;19.60;51.80;;;;;;4081691;28;20076;-89
2022/06/21 11:28:18;;;;;;;7.68;1.63;;;19.70;52.50;;;;;;4080033;28;20401;-90
2022/06/21 11:30:45;;;;;;;4.75;1.60;;;19.70;52.60;;;;;;4085187;28;20039;-88
2022/06/21 11:33:39;;;;;;;4.88;1.17;;;19.70;52.40;;;;;;4092269;28;20043;-87
2022/06/21 11:36:15;;;;;;;6.75;1.30;;;19.70;51.00;;;;;;4069105;28;20031;-88
2022/06/21 11:38:56;;;;;;;4.53;1.38;;;19.70;52.00;;;;;;4073556;28;20825;-89
2022/06/21 11:44:40;;;;;;;4.38;1.40;;;19.80;51.30;;;;;;4086604;28;20273;-85
2022/06/21 11:47:11;;;;;;;4.93;1.20;;;19.80;51.10;;;;;;4072683;28;20703;-88
2022/06/21 11:50:01;;;;;;;8.93;1.77;;;19.80;50.40;;;;;;4089353;28;20046;-89
2022/06/21 11:52:40;;;;;;;3.53;1.30;;;19.80;51.30;;;;;;4081443;28;20402;-90
2022/06/21 11:55:18;;;;;;;4.25;1.40;;;19.80;51.30;;;;;;4086230;28;20031;-88
2022/06/21 11:57:58;;;;;;;3.25;1.33;;;19.80;51.10;;;;;;4085484;28;20035;-89
2022/06/21 12:00:37;;;;;;;7.57;1.60;;;19.80;51.50;;;;;;4088689;28;20035;-87
2022/06/21 12:03:02;;;;;;;4.47;1.45;;;19.80;51.20;;;;;;4094177;28;20171;-89
2022/06/21 12:05:34;;;;;;;7.03;1.63;;;19.80;51.00;;;;;;4089753;28;20039;-87
2022/06/21 12:08:10;;;;;;;4.22;1.40;;;19.80;50.70;;;;;;4091199;28;20043;-88
2022/06/21 12:10:50;;;;;;;4.47;1.65;;;19.80;51.40;;;;;;4094184;28;20053;-89
2022/06/21 12:13:36;;;;;;;4.28;1.40;;;19.80;51.90;;;;;;4087124;28;20042;-90
2022/06/21 12:16:32;;;;;;;5.93;1.38;;;19.80;52.20;;;;;;4090535;28;20023;-88
2022/06/21 12:19:01;;;;;;;4.78;1.40;;;19.80;50.90;;;;;;4086944;28;20041;-91
2022/06/21 12:21:26;;;;;;;6.57;1.67;;;19.90;51.10;;;;;;4073853;28;20059;-90
2022/06/21 12:23:55;;;;;;;3.47;1.40;;;19.90;51.50;;;;;;4083163;28;20036;-88
2022/06/21 12:26:24;;;;;;;7.22;1.75;;;19.90;52.00;;;;;;4081897;28;20058;-89
2022/06/21 12:28:46;;;;;;;6.05;1.73;;;19.90;51.80;;;;;;4088326;28;20035;-90
2022/06/21 12:31:22;;;;;;;5.97;1.58;;;19.90;51.50;;;;;;4087038;28;20496;-89
2022/06/21 12:33:46;;;;;;;6.25;1.98;;;19.90;50.90;;;;;;4064310;28;20039;-90
2022/06/21 12:36:13;;;;;;;7.22;1.85;;;19.90;50.30;;;;;;4083596;28;20172;-89
2022/06/21 12:38:47;;;;;;;8.20;1.95;;;19.80;50.40;;;;;;4072492;28;20031;-90
2022/06/21 12:41:21;;;;;;;5.82;1.60;;;19.80;50.40;;;;;;4082705;28;20070;-88
2022/06/21 12:43:42;;;;;;;;;;;19.80;50.40;;;;;;4087069;28;21714;-88
2022/06/21 12:46:07;;;;;;;5.63;1.73;;;19.80;50.80;;;;;;4086376;28;19918;-89
2022/06/21 12:48:47;;;;;;;5.03;1.80;;;19.80;50.90;;;;;;4084919;28;20123;-88
2022/06/21 12:51:19;;;;;;;4.70;1.63;;;19.80;51.40;;;;;;4079840;28;20038;-89
2022/06/21 12:53:51;;;;;;;6.38;1.60;;;19.70;51.00;;;;;;4084715;28;20649;-90
2022/06/21 12:56:29;;;;;;;11.40;2.15;;;19.70;50.80;;;;;;4090271;28;20027;-89
2022/06/21 12:59:33;;;;;;;4.38;1.65;;;19.70;51.00;;;;;;4087776;28;20031;-90
2022/06/21 13:02:12;;;;;;;7.97;1.50;;;19.70;51.10;;;;;;4094740;28;20046;-92
2022/06/21 13:05:01;;;;;;;3.95;1.65;;;19.70;51.10;;;;;;4074998;28;20058;-88
2022/06/21 13:07:51;;;;;;;4.93;1.35;;;19.70;51.60;;;;;;4091584;28;20090;-92
2022/06/21 13:10:14;;;;;;;4.00;1.42;;;19.70;50.90;;;;;;4087649;28;20019;-89
2022/06/21 13:12:44;;;;;;;;;;;19.80;51.40;;;;;;4090454;28;20400;-88
2022/06/21 13:15:11;;;;;;;7.75;1.60;;;19.80;51.50;;;;;;4089399;28;21668;-88
2022/06/21 13:17:35;;;;;;;6.65;1.50;;;19.80;51.30;;;;;;4088775;28;20032;-88
2022/06/21 13:19:59;;;;;;;;;;;19.80;51.70;;;;;;4078138;28;20103;-88
2022/06/21 13:22:33;;;;;;;6.60;1.60;;;19.90;51.60;;;;;;4088608;28;19918;-89
2022/06/21 13:24:58;;;;;;;9.93;1.80;;;19.90;51.40;;;;;;4092661;28;20118;-88
2022/06/21 13:27:26;;;;;;;6.60;2.25;;;19.90;51.40;;;;;;4091469;28;20039;-89
2022/06/21 13:30:17;;;;;;;7.85;2.17;;;20.00;51.30;;;;;;4084561;28;20110;-89
2022/06/21 13:32:53;;;;;;;5.28;1.70;;;20.00;51.70;;;;;;4076758;28;20351;-91